Time;durP1;ratioP1;P1;durP2;ratioP2;P2;SDS_P1;SDS_P2;PMS_P1;PMS_P2;Temp;Humidity;BMP_temperature;BMP_pressure;BME280_temperature;BME280_humidity;BME280_pressure;Samples;Min_cycle;Max_cycle;Signal;HPM_P1;HPM_P2
2023/02/14 00:00:46;;;;;;;;;;;19.20;48.80;;;;;;5003030;28;20014;-71
2023/02/14 00:03:13;;;;;;;;;;;19.20;48.80;;;;;;5001587;28;19910;-71
2023/02/14 00:05:38;;;;;;;;;;;19.20;48.80;;;;;;5001635;28;20401;-71
2023/02/14 00:08:04;;;;;;;;;;;19.20;48.80;;;;;;5000180;28;19948;-71
2023/02/14 00:10:29;;;;;;;;;;;19.20;48.60;;;;;;5000166;28;19901;-71
2023/02/14 00:12:55;;;;;;;;;;;19.20;48.60;;;;;;5001494;28;19909;-71
2023/02/14 00:15:24;;;;;;;;;;;19.20;48.70;;;;;;5001517;28;19909;-71
2023/02/14 00:17:54;;;;;;;;;;;19.20;48.60;;;;;;5001434;28;19914;-71
2023/02/14 00:20:20;;;;;;;;;;;19.20;48.70;;;;;;5001438;28;19909;-71
2023/02/14 00:22:46;;;;;;;;;;;19.20;48.70;;;;;;5001337;28;19921;-70
2023/02/14 00:25:11;;;;;;;;;;;19.20;48.80;;;;;;5001377;28;19910;-70
2023/02/14 00:27:37;;;;;;;;;;;19.20;48.70;;;;;;5001341;28;19976;-71
2023/02/14 00:30:03;;;;;;;;;;;19.20;48.60;;;;;;5001325;28;19980;-71
2023/02/14 00:32:29;;;;;;;;;;;19.20;48.80;;;;;;5001270;28;19909;-71
2023/02/14 00:34:54;;;;;;;;;;;19.30;48.70;;;;;;5001318;28;19981;-71
2023/02/14 00:37:20;;;;;;;;;;;19.30;48.40;;;;;;5001218;28;19914;-71
2023/02/14 00:39:46;;;;;;;;;;;19.30;48.80;;;;;;5001168;28;19902;-70
2023/02/14 00:42:12;;;;;;;;;;;19.30;48.80;;;;;;5001121;28;19913;-70
2023/02/14 00:44:38;;;;;;;;;;;19.30;48.70;;;;;;5001202;28;19910;-71
2023/02/14 00:47:04;;;;;;;;;;;19.30;48.50;;;;;;5001791;28;19902;-71
2023/02/14 00:49:29;;;;;;;;;;;19.20;48.60;;;;;;5005196;28;19916;-71
2023/02/14 00:51:55;;;;;;;;;;;19.30;48.70;;;;;;5005259;28;19909;-71
2023/02/14 00:54:20;;;;;;;;;;;19.30;48.60;;;;;;5004983;28;19914;-72
2023/02/14 00:56:46;;;;;;;;;;;19.30;48.50;;;;;;5005069;28;19902;-71
2023/02/14 00:59:11;;;;;;;;;;;19.30;48.50;;;;;;5005167;28;19902;-71
2023/02/14 01:01:37;;;;;;;;;;;19.30;48.70;;;;;;5004945;28;20110;-72
2023/02/14 01:04:03;;;;;;;;;;;19.30;48.60;;;;;;5005039;28;19910;-71
2023/02/14 01:06:28;;;;;;;;;;;19.30;48.50;;;;;;5004977;28;19910;-71
2023/02/14 01:08:54;;;;;;;;;;;19.30;48.70;;;;;;5005000;28;20353;-71
2023/02/14 01:11:20;;;;;;;;;;;19.30;48.60;;;;;;5005017;28;20113;-71
2023/02/14 01:13:47;;;;;;;;;;;19.30;48.50;;;;;;5004946;28;19902;-70
2023/02/14 01:16:14;;;;;;;;;;;19.30;48.60;;;;;;5004763;28;19940;-72
2023/02/14 01:18:40;;;;;;;;;;;19.20;48.50;;;;;;5003370;28;20098;-72
2023/02/14 01:21:09;;;;;;;;;;;19.20;48.60;;;;;;5004560;28;19957;-71
2023/02/14 01:23:35;;;;;;;;;;;19.20;48.70;;;;;;5004734;28;20260;-71
2023/02/14 01:26:04;;;;;;;;;;;19.20;48.60;;;;;;5004770;28;19910;-71
2023/02/14 01:28:30;;;;;;;;;;;19.20;48.60;;;;;;5004658;28;19916;-71
2023/02/14 01:30:55;;;;;;;;;;;19.20;48.60;;;;;;5004490;28;19949;-71
2023/02/14 01:33:21;;;;;;;;;;;19.20;48.60;;;;;;5004450;28;19909;-71
2023/02/14 01:35:47;;;;;;;;;;;19.20;48.70;;;;;;5004234;28;19902;-71
2023/02/14 01:38:12;;;;;;;;;;;19.20;48.80;;;;;;5003135;28;19902;-71
2023/02/14 01:40:41;;;;;;;;;;;19.20;48.80;;;;;;5004119;28;19973;-72
2023/02/14 01:43:12;;;;;;;;;;;19.20;48.70;;;;;;5004238;28;19902;-71
2023/02/14 01:45:38;;;;;;;;;;;19.20;48.70;;;;;;5004209;28;19924;-70
2023/02/14 01:48:03;;;;;;;;;;;19.30;48.60;;;;;;5004127;28;20400;-71
2023/02/14 01:50:31;;;;;;;;;;;19.30;48.60;;;;;;5004164;28;20256;-71
2023/02/14 01:53:02;;;;;;;;;;;19.30;48.70;;;;;;5003875;28;19914;-71
2023/02/14 01:55:31;;;;;;;;;;;19.30;48.50;;;;;;5004031;28;19934;-71
2023/02/14 01:58:08;;;;;;;;;;;19.30;48.50;;;;;;5003686;28;19997;-71
2023/02/14 02:03:18;;;;;;;;;;;19.20;48.70;;;;;;5004092;28;20209;-71
2023/02/14 02:05:47;;;;;;;;;;;19.20;48.90;;;;;;5003797;28;19910;-71
2023/02/14 02:08:12;;;;;;;;;;;19.10;49.00;;;;;;5003796;28;19902;-71
2023/02/14 02:10:38;;;;;;;;;;;19.00;49.10;;;;;;5003701;28;19901;-72
2023/02/14 02:13:05;;;;;;;;;;;18.90;49.40;;;;;;5003722;28;19906;-71
2023/02/14 02:15:33;;;;;;;;;;;18.80;49.60;;;;;;5003859;28;20095;-71
2023/02/14 02:18:01;;;;;;;;;;;18.70;49.70;;;;;;5003742;28;19909;-71
2023/02/14 02:20:42;;;;;;;;;;;18.60;49.90;;;;;;5003663;28;19914;-71
2023/02/14 02:23:30;;;;;;;;;;;18.60;50.20;;;;;;5003592;28;19913;-72
2023/02/14 02:26:14;;;;;;;;;;;18.50;50.10;;;;;;5003491;28;19976;-71
2023/02/14 02:28:40;;;;;;;;;;;18.40;50.30;;;;;;5002260;28;19910;-71
2023/02/14 02:31:14;;;;;;;;;;;18.50;50.50;;;;;;5003518;28;20197;-72
2023/02/14 02:33:40;;;;;;;;;;;18.50;50.30;;;;;;5003505;28;19913;-73
2023/02/14 02:36:05;;;;;;;;;;;18.60;50.30;;;;;;5003379;28;19953;-71
2023/02/14 02:38:31;;;;;;;;;;;18.70;50.10;;;;;;5003387;28;19948;-71
2023/02/14 02:41:06;;;;;;;;;;;18.70;49.90;;;;;;5003120;28;19920;-71
2023/02/14 02:43:47;;;;;;;;;;;18.80;49.60;;;;;;5003248;28;19932;-70
2023/02/14 02:46:48;;;;;;;;;;;18.90;49.50;;;;;;5002989;28;19916;-71
2023/02/14 02:54:57;;;;;;;;;;;19.00;49.30;;;;;;5002802;28;19944;-70
2023/02/14 02:57:25;;;;;;;;;;;19.10;49.20;;;;;;5002956;28;20420;-71
2023/02/14 02:59:53;;;;;;;;;;;19.10;49.10;;;;;;5002869;28;20112;-72
2023/02/14 03:02:21;;;;;;;;;;;19.20;49.50;;;;;;5002836;28;19981;-72
2023/02/14 03:04:57;;;;;;;;;;;19.20;49.00;;;;;;5002744;28;19902;-71
2023/02/14 03:07:34;;;;;;;;;;;19.20;48.90;;;;;;5002751;28;19920;-70
2023/02/14 03:10:01;;;;;;;;;;;19.20;48.90;;;;;;5002225;28;20252;-72
2023/02/14 03:12:32;;;;;;;;;;;19.20;48.80;;;;;;5001775;28;19989;-71
2023/02/14 03:15:00;;;;;;;;;;;19.20;48.80;;;;;;5002499;28;19910;-71
2023/02/14 03:17:26;;;;;;;;;;;19.20;48.80;;;;;;5002554;28;19909;-71
2023/02/14 03:20:12;;;;;;;;;;;19.20;48.80;;;;;;5002434;28;19909;-70
2023/02/14 03:22:38;;;;;;;;;;;19.10;48.90;;;;;;5002319;28;19913;-70
2023/02/14 03:25:03;;;;;;;;;;;19.00;49.10;;;;;;5002393;28;19923;-71
2023/02/14 03:27:35;;;;;;;;;;;18.90;49.30;;;;;;5002298;28;19902;-71
2023/02/14 03:30:16;;;;;;;;;;;18.80;49.60;;;;;;5002291;28;19910;-71
2023/02/14 03:33:11;;;;;;;;;;;18.70;49.80;;;;;;5002163;28;20164;-71
2023/02/14 03:35:44;;;;;;;;;;;18.60;50.10;;;;;;4993482;28;19909;-71
2023/02/14 03:38:14;;;;;;;;;;;18.50;50.20;;;;;;5002092;28;19905;-72
2023/02/14 03:40:48;;;;;;;;;;;18.40;50.40;;;;;;5001219;28;19936;-71
2023/02/14 03:43:17;;;;;;;;;;;18.40;50.60;;;;;;5001432;28;19944;-72
2023/02/14 03:45:46;;;;;;;;;;;18.40;50.90;;;;;;5001330;28;20232;-71
2023/02/14 03:48:12;;;;;;;;;;;18.40;50.80;;;;;;5001092;28;19913;-71
2023/02/14 03:50:40;;;;;;;;;;;18.50;50.60;;;;;;5001800;28;19909;-72
2023/02/14 03:53:06;;;;;;;;;;;18.60;50.60;;;;;;5001731;28;19925;-70
2023/02/14 03:55:36;;;;;;;;;;;18.60;50.30;;;;;;5001823;28;19941;-71
2023/02/14 03:58:13;;;;;;;;;;;18.80;50.20;;;;;;5001799;28;20217;-72
2023/02/14 04:00:40;;;;;;;;;;;18.80;50.00;;;;;;5000385;28;19906;-72
2023/02/14 04:03:10;;;;;;;;;;;18.90;49.80;;;;;;5000216;28;19913;-73
2023/02/14 04:05:37;;;;;;;;;;;18.90;49.80;;;;;;5001572;28;19910;-71
2023/02/14 04:08:02;;;;;;;;;;;18.90;49.70;;;;;;5001689;28;20192;-71
2023/02/14 04:10:28;;;;;;;;;;;19.00;49.50;;;;;;5000238;28;19902;-71
2023/02/14 04:12:54;;;;;;;;;;;19.00;49.40;;;;;;5001571;28;19917;-72
2023/02/14 04:15:19;;;;;;;;;;;19.10;49.40;;;;;;5001510;28;20101;-72
2023/02/14 04:20:29;;;;;;;;;;;19.10;49.10;;;;;;5001456;28;19925;-71
2023/02/14 04:22:54;;;;;;;;;;;19.10;49.10;;;;;;4999397;28;19913;-70
2023/02/14 04:25:21;;;;;;;;;;;19.10;49.10;;;;;;5001398;28;19951;-71
2023/02/14 04:27:47;;;;;;;;;;;19.10;49.10;;;;;;5001419;28;20105;-72
2023/02/14 04:30:13;;;;;;;;;;;19.10;49.10;;;;;;5001307;28;19971;-72
2023/02/14 04:32:40;;;;;;;;;;;19.10;48.90;;;;;;5000035;28;19981;-71
2023/02/14 04:35:06;;;;;;;;;;;19.10;48.90;;;;;;5001258;28;20264;-72
2023/02/14 04:37:32;;;;;;;;;;;19.10;49.00;;;;;;5001276;28;19901;-72
2023/02/14 04:39:57;;;;;;;;;;;19.10;49.00;;;;;;5001214;28;19945;-71
2023/02/14 04:42:23;;;;;;;;;;;19.10;49.00;;;;;;5001195;28;19919;-71
2023/02/14 04:44:48;;;;;;;;;;;19.00;49.20;;;;;;5001252;28;19917;-71
2023/02/14 04:47:14;;;;;;;;;;;18.90;49.40;;;;;;5000470;28;19917;-72
2023/02/14 04:49:40;;;;;;;;;;;18.70;49.70;;;;;;5001177;28;20102;-71
2023/02/14 04:52:05;;;;;;;;;;;18.70;50.00;;;;;;4999960;28;19914;-71
2023/02/14 04:54:31;;;;;;;;;;;18.60;50.20;;;;;;5001205;28;19976;-70
2023/02/14 04:56:57;;;;;;;;;;;18.50;50.40;;;;;;5001293;28;19909;-71
2023/02/14 04:59:22;;;;;;;;;;;18.40;50.40;;;;;;5001169;28;19901;-72
2023/02/14 05:01:48;;;;;;;;;;;18.40;50.60;;;;;;5001104;28;19920;-71
2023/02/14 05:04:14;;;;;;;;;;;18.30;50.70;;;;;;5001123;28;19909;-71
2023/02/14 05:06:39;;;;;;;;;;;18.30;50.60;;;;;;5001115;28;19914;-70
2023/02/14 05:09:05;;;;;;;;;;;18.30;50.70;;;;;;5001065;28;19921;-71
2023/02/14 05:11:31;;;;;;;;;;;18.30;50.70;;;;;;5001200;28;19914;-71
2023/02/14 05:13:56;;;;;;;;;;;18.40;50.80;;;;;;5001185;28;19908;-71
2023/02/14 05:16:22;;;;;;;;;;;18.40;51.30;;;;;;5001109;28;19905;-72
2023/02/14 05:18:47;;;;;;;;;;;18.50;50.60;;;;;;5000991;28;20130;-72
2023/02/14 05:21:13;;;;;;;;;;;18.70;50.40;;;;;;5000804;28;19913;-72
2023/02/14 05:23:39;;;;;;;;;;;18.70;50.20;;;;;;5000910;28;20182;-72
2023/02/14 05:26:04;;;;;;;;;;;18.80;50.00;;;;;;4999680;28;19909;-71
2023/02/14 05:28:30;;;;;;;;;;;18.80;49.90;;;;;;5001111;28;19980;-72
2023/02/14 05:30:56;;;;;;;;;;;18.80;49.80;;;;;;5000966;28;19948;-72
2023/02/14 05:33:22;;;;;;;;;;;18.80;50.10;;;;;;5001935;28;19906;-71
2023/02/14 05:35:47;;;;;;;;;;;18.90;49.90;;;;;;5004454;28;20240;-71
2023/02/14 05:38:13;;;;;;;;;;;18.90;49.80;;;;;;5004371;28;19901;-72
2023/02/14 05:40:39;;;;;;;;;;;18.90;49.70;;;;;;5004271;28;19906;-71
2023/02/14 05:43:05;;;;;;;;;;;19.00;49.60;;;;;;5004332;28;20090;-71
2023/02/14 05:45:30;;;;;;;;;;;19.00;49.50;;;;;;5003488;28;19929;-71
2023/02/14 05:47:56;;;;;;;;;;;19.10;49.70;;;;;;5004204;28;19929;-71
2023/02/14 05:50:21;;;;;;;;;;;19.00;49.40;;;;;;5004413;28;19913;-73
2023/02/14 05:52:47;;;;;;;;;;;19.00;49.40;;;;;;5005477;28;20140;-72
2023/02/14 05:55:12;;;;;;;;;;;19.00;49.50;;;;;;5005794;28;19902;-76
2023/02/14 05:57:38;;;;;;;;;;;19.00;49.50;;;;;;5004798;28;19902;-72
2023/02/14 06:00:05;;;;;;;;;;;19.10;49.50;;;;;;5004037;28;19909;-72
2023/02/14 06:02:31;;;;;;;;;;;19.10;49.20;;;;;;4993225;28;19985;-73
2023/02/14 06:04:56;;;;;;;;;;;19.10;49.50;;;;;;4999083;28;19921;-72
2023/02/14 06:07:22;;;;;;;;;;;19.20;49.20;;;;;;4997137;28;19909;-74
2023/02/14 06:09:48;;;;;;;;;;;19.10;49.40;;;;;;5005719;28;19902;-73
2023/02/14 06:12:13;;;;;;;;;;;19.00;49.50;;;;;;5005371;28;19909;-71
2023/02/14 06:14:41;;;;;;;;;;;19.00;49.90;;;;;;5003334;28;20016;-73
2023/02/14 06:17:07;;;;;;;;;;;19.00;50.10;;;;;;5002651;28;19960;-71
2023/02/14 06:19:33;;;;;;;;;;;18.90;50.40;;;;;;5003921;28;20074;-72
2023/02/14 06:21:58;;;;;;;;;;;18.90;50.70;;;;;;5003563;28;19912;-72
2023/02/14 06:24:24;;;;;;;;;;;18.90;50.70;;;;;;5003659;28;19924;-71
2023/02/14 06:26:49;;;;;;;;;;;18.90;50.90;;;;;;5004185;28;20297;-71
2023/02/14 06:29:16;;;;;;;;;;;18.80;51.20;;;;;;5003536;28;20205;-71
2023/02/14 06:31:41;;;;;;;;;;;18.80;51.00;;;;;;5003606;28;19910;-74
2023/02/14 06:34:07;;;;;;;;;;;18.80;51.10;;;;;;5003536;28;19932;-71
2023/02/14 06:36:33;;;;;;;;;;;18.80;51.30;;;;;;5003758;28;19910;-72
2023/02/14 06:38:58;;;;;;;;;;;18.80;51.00;;;;;;5003553;28;19901;-75
2023/02/14 06:41:24;;;;;;;;;;;18.80;51.40;;;;;;5004202;28;20101;-73
2023/02/14 06:43:49;;;;;;;;;;;18.80;51.40;;;;;;5003387;28;20190;-71
2023/02/14 06:46:16;;;;;;;;;;;18.80;52.00;;;;;;5002665;28;19916;-71
2023/02/14 06:48:42;;;;;;;;;;;18.80;52.00;;;;;;5001378;28;20233;-72
2023/02/14 06:51:07;;;;;;;;;;;18.70;51.90;;;;;;5001176;28;19906;-73
2023/02/14 06:53:33;;;;;;;;;;;18.70;51.70;;;;;;4999916;28;19922;-72
2023/02/14 06:55:58;;;;;;;;;;;18.80;51.50;;;;;;5003854;28;19902;-71
2023/02/14 06:58:24;;;;;;;;;;;18.90;51.00;;;;;;5002956;28;19906;-72
2023/02/14 07:00:49;;;;;;;;;;;19.00;51.30;;;;;;4996909;28;19921;-71
2023/02/14 07:03:15;;;;;;;;;;;19.10;51.00;;;;;;4987981;28;19910;-71
2023/02/14 07:05:41;;;;;;;;;;;19.10;50.70;;;;;;4983659;28;20157;-71
2023/02/14 07:08:07;;;;;;;;;;;19.20;50.80;;;;;;4991290;28;20206;-71
2023/02/14 07:10:33;;;;;;;;;;;19.20;50.80;;;;;;5002156;28;19913;-71
2023/02/14 07:12:59;;;;;;;;;;;19.20;50.90;;;;;;5002355;28;19984;-71
2023/02/14 07:15:24;;;;;;;;;;;19.20;50.50;;;;;;5002188;28;19928;-71
2023/02/14 07:17:50;;;;;;;;;;;18.60;48.90;;;;;;5003155;28;19910;-71
2023/02/14 07:20:17;;;;;;;;;;;18.80;50.20;;;;;;5002856;28;19910;-71
2023/02/14 07:22:42;;;;;;;;;;;19.00;50.60;;;;;;5002457;28;19913;-72
2023/02/14 07:25:08;;;;;;;;;;;19.10;50.40;;;;;;5001473;28;20159;-71
2023/02/14 07:27:33;;;;;;;;;;;19.20;50.20;;;;;;5002929;28;19909;-72
2023/02/14 07:29:59;;;;;;;;;;;19.30;50.40;;;;;;5002960;28;20221;-71
2023/02/14 07:32:24;;;;;;;;;;;19.30;50.30;;;;;;5000428;28;20257;-71
2023/02/14 07:34:50;;;;;;;;;;;19.30;50.10;;;;;;5001799;28;20271;-71
2023/02/14 07:37:16;;;;;;;;;;;19.40;49.90;;;;;;5002183;28;19941;-71
2023/02/14 07:39:45;;;;;;;;;;;19.40;50.10;;;;;;4999006;28;19921;-73
2023/02/14 07:42:10;;;;;;;;;;;19.20;49.80;;;;;;5013903;28;19917;-71
2023/02/14 07:44:39;;;;;;;;;;;19.20;50.10;;;;;;5021898;28;20193;-71
2023/02/14 07:47:05;;;;;;;;;;;19.20;50.20;;;;;;5021968;28;19959;-72
2023/02/14 07:49:31;;;;;;;;;;;19.30;50.30;;;;;;5021645;28;20210;-71
2023/02/14 07:51:56;;;;;;;;;;;19.30;50.60;;;;;;5021982;28;19947;-74
2023/02/14 07:54:22;;;;;;;;;;;19.30;50.40;;;;;;5022381;28;19959;-73
2023/02/14 07:56:47;;;;;;;;;;;19.30;50.60;;;;;;5022695;28;19976;-73
2023/02/14 07:59:13;;;;;;;;;;;19.30;50.50;;;;;;5023578;28;19909;-73
2023/02/14 08:01:38;;;;;;;;;;;19.30;50.60;;;;;;5013729;28;19917;-71
2023/02/14 08:04:04;;;;;;;;;;;19.20;50.70;;;;;;5003738;28;19916;-74
2023/02/14 08:06:29;;;;;;;;;;;19.30;50.80;;;;;;5003562;28;19910;-72
2023/02/14 08:08:55;;;;;;;;;;;19.30;50.80;;;;;;4989749;28;20268;-71
2023/02/14 08:14:06;;;;;;;;;;;19.30;51.00;;;;;;4997452;28;20004;-71
2023/02/14 08:16:33;;;;;;;;;;;19.20;51.20;;;;;;5001251;28;19902;-72
2023/02/14 08:18:59;;;;;;;;;;;19.20;51.90;;;;;;4999378;28;20236;-71
2023/02/14 08:21:24;;;;;;;;;;;19.20;51.10;;;;;;4996485;28;19918;-70
2023/02/14 08:23:50;;;;;;;;;;;19.20;51.10;;;;;;5001258;28;19945;-70
2023/02/14 08:26:16;;;;;;;;;;;19.20;51.10;;;;;;5001997;28;19962;-71
2023/02/14 08:28:42;;;;;;;;;;;19.10;50.90;;;;;;4996199;28;19941;-71
2023/02/14 08:31:07;;;;;;;;;;;19.20;51.20;;;;;;4991436;28;19977;-71
2023/02/14 08:33:33;;;;;;;;;;;19.20;51.60;;;;;;5000991;28;20102;-70
2023/02/14 08:35:59;;;;;;;;;;;19.30;50.90;;;;;;5003167;28;19955;-72
2023/02/14 08:38:24;;;;;;;;;;;19.40;50.80;;;;;;5002226;28;20467;-72
2023/02/14 08:40:50;;;;;;;;;;;19.40;50.60;;;;;;5002274;28;19910;-72
2023/02/14 08:43:16;;;;;;;;;;;19.50;50.40;;;;;;5003917;28;19909;-74
2023/02/14 08:45:41;;;;;;;;;;;19.50;50.40;;;;;;5003951;28;20105;-71
2023/02/14 08:48:08;;;;;;;;;;;19.60;50.30;;;;;;4997745;28;19906;-72
2023/02/14 08:50:34;;;;;;;;;;;19.60;50.30;;;;;;4997638;28;20017;-70
2023/02/14 08:52:59;;;;;;;;;;;19.60;50.30;;;;;;4996289;28;20236;-72
2023/02/14 08:55:26;;;;;;;;;;;19.70;50.30;;;;;;4999525;28;19937;-71
2023/02/14 08:57:53;;;;;;;;;;;19.70;50.30;;;;;;5003292;28;19937;-71
2023/02/14 09:00:19;;;;;;;;;;;19.70;50.30;;;;;;4989850;28;19952;-71
2023/02/14 09:02:48;;;;;;;;;;;19.70;50.30;;;;;;5002309;28;19913;-73
2023/02/14 09:05:14;;;;;;;;;;;19.60;50.50;;;;;;5002913;28;20464;-74
2023/02/14 09:07:39;;;;;;;;;;;19.60;50.70;;;;;;5001097;28;19910;-75
2023/02/14 09:10:05;;;;;;;;;;;18.80;43.40;;;;;;4998919;28;19913;-72
2023/02/14 09:12:31;;;;;;;;;;;19.00;49.20;;;;;;5004147;28;20268;-71
2023/02/14 09:14:56;;;;;;;;;;;19.10;50.60;;;;;;4996441;28;19986;-71
2023/02/14 09:17:22;;;;;;;;;;;19.20;50.70;;;;;;4988698;28;19946;-73
2023/02/14 09:19:47;;;;;;;;;;;19.20;50.90;;;;;;5006005;28;19965;-72
2023/02/14 09:22:13;;;;;;;;;;;19.20;51.00;;;;;;5006664;28;19909;-72
2023/02/14 09:24:40;;;;;;;;;;;19.20;50.80;;;;;;5005911;28;19908;-72
2023/02/14 09:27:06;;;;;;;;;;;19.30;51.10;;;;;;5005474;28;19972;-71
2023/02/14 09:29:31;;;;;;;;;;;19.30;51.60;;;;;;4998041;28;19914;-70
2023/02/14 09:31:58;;;;;;;;;;;19.30;51.00;;;;;;5002185;28;19941;-71
2023/02/14 09:39:53;;;;;;;;;;;19.30;51.20;;;;;;5005568;28;20094;-74
2023/02/14 09:42:22;;;;;;;;;;;19.20;51.10;;;;;;5005445;28;19910;-76
2023/02/14 09:44:56;;;;;;;;;;;19.20;51.10;;;;;;5005395;28;19909;-75
2023/02/14 09:47:29;;;;;;;;;;;19.30;51.20;;;;;;5003339;28;19909;-70
2023/02/14 09:49:55;;;;;;;;;;;19.30;51.20;;;;;;5006557;28;20157;-77
2023/02/14 09:52:24;;;;;;;;;;;19.20;51.30;;;;;;5003330;28;19909;-74
2023/02/14 09:54:52;;;;;;;;;;;19.30;51.20;;;;;;4997866;28;19914;-73
2023/02/14 09:57:32;;;;;;;;;;;19.30;51.20;;;;;;4991125;28;19921;-71
2023/02/14 10:00:03;;;;;;;;;;;19.30;51.20;;;;;;4995641;28;20090;-70
2023/02/14 10:02:28;;;;;;;;;;;19.30;51.30;;;;;;5001378;28;19910;-71
2023/02/14 10:05:00;;;;;;;;;;;19.30;51.20;;;;;;4999732;28;20149;-72
2023/02/14 10:07:26;;;;;;;;;;;19.30;51.30;;;;;;4999893;28;20117;-74
2023/02/14 10:10:10;;;;;;;;;;;19.30;51.20;;;;;;5003081;28;19914;-72
2023/02/14 10:12:38;;;;;;;;;;;19.30;51.40;;;;;;4997045;28;20217;-71
2023/02/14 10:15:11;;;;;;;;;;;19.30;51.30;;;;;;4998779;28;19945;-71
2023/02/14 10:17:36;;;;;;;;;;;19.40;51.10;;;;;;4993901;28;20277;-71
2023/02/14 10:20:05;;;;;;;;;;;19.50;51.00;;;;;;4998586;28;19914;-71
2023/02/14 10:22:40;;;;;;;;;;;19.60;50.90;;;;;;4995883;28;19945;-70
2023/02/14 10:25:26;;;;;;;;;;;19.60;50.70;;;;;;4999484;28;20149;-71
2023/02/14 10:27:54;;;;;;;;;;;19.70;50.70;;;;;;4993145;28;20182;-71
2023/02/14 10:30:21;;;;;;;;;;;19.80;50.80;;;;;;4988240;28;19929;-75
2023/02/14 10:32:57;;;;;;;;;;;19.80;50.60;;;;;;4999024;28;19918;-73
2023/02/14 10:35:22;;;;;;;;;;;19.80;50.70;;;;;;5003503;28;19941;-71
2023/02/14 10:37:56;;;;;;;;;;;19.70;50.80;;;;;;5002482;28;19961;-71
2023/02/14 10:40:30;;;;;;;;;;;19.70;51.00;;;;;;5001665;28;20317;-71
2023/02/14 10:43:11;;;;;;;;;;;19.70;51.00;;;;;;5003100;28;19936;-72
2023/02/14 10:45:48;;;;;;;;;;;19.70;51.10;;;;;;5001724;28;19917;-71
2023/02/14 10:48:22;;;;;;;;;;;19.60;51.10;;;;;;5003191;28;19910;-71
2023/02/14 10:51:09;;;;;;;;;;;19.60;51.20;;;;;;5003270;28;19909;-71
2023/02/14 10:53:35;;;;;;;;;;;19.60;51.30;;;;;;5003352;28;19918;-71
2023/02/14 10:56:28;;;;;;;;;;;19.60;51.40;;;;;;5003199;28;19913;-73
2023/02/14 10:58:55;;;;;;;;;;;19.50;51.20;;;;;;5001070;28;19909;-72
2023/02/14 11:01:21;;;;;;;;;;;19.60;51.40;;;;;;5002083;28;19921;-71
2023/02/14 11:04:02;;;;;;;;;;;19.50;51.40;;;;;;5002885;28;19914;-71
2023/02/14 11:06:29;;;;;;;;;;;19.50;51.70;;;;;;5003303;28;19984;-73
2023/02/14 11:08:54;;;;;;;;;;;19.50;51.70;;;;;;5001331;28;19945;-73
2023/02/14 11:11:23;;;;;;;;;;;19.40;51.80;;;;;;5001520;28;19901;-71
2023/02/14 11:13:49;;;;;;;;;;;19.40;51.80;;;;;;5004501;28;19909;-72
2023/02/14 11:16:34;;;;;;;;;;;19.40;51.90;;;;;;5001914;28;19902;-72
2023/02/14 11:19:18;;;;;;;;;;;19.40;52.00;;;;;;5001365;28;19960;-71
2023/02/14 11:21:45;;;;;;;;;;;19.40;52.10;;;;;;5005835;28;19917;-72
2023/02/14 11:24:28;;;;;;;;;;;19.40;52.00;;;;;;5001502;28;19948;-71
2023/02/14 11:26:56;;;;;;;;;;;19.40;51.80;;;;;;5004868;28;19921;-72
2023/02/14 11:29:25;;;;;;;;;;;19.40;52.00;;;;;;5002805;28;19976;-71
2023/02/14 11:31:50;;;;;;;;;;;19.40;51.90;;;;;;5002480;28;19943;-71
2023/02/14 11:34:35;;;;;;;;;;;19.40;51.80;;;;;;4995342;28;19914;-71
2023/02/14 11:37:01;;;;;;;;;;;19.40;51.80;;;;;;4983539;28;19972;-71
2023/02/14 11:39:30;;;;;;;;;;;19.50;51.80;;;;;;4992638;28;20190;-71
2023/02/14 11:41:58;;;;;;;;;;;19.50;51.80;;;;;;4996808;28;19918;-72
2023/02/14 11:44:25;;;;;;;;;;;19.50;51.70;;;;;;5002743;28;19910;-72
2023/02/14 11:46:52;;;;;;;;;;;19.50;51.80;;;;;;5003158;28;19936;-71
2023/02/14 11:49:23;;;;;;;;;;;19.50;51.70;;;;;;5003017;28;19916;-73
2023/02/14 11:51:49;;;;;;;;;;;19.50;51.70;;;;;;5001336;28;19910;-72
2023/02/14 11:54:29;;;;;;;;;;;19.50;51.60;;;;;;5003861;28;19944;-71
2023/02/14 11:56:59;;;;;;;;;;;19.50;51.60;;;;;;5002190;28;19910;-72
2023/02/14 11:59:36;;;;;;;;;;;19.60;51.70;;;;;;4996744;28;19913;-70
2023/02/14 12:02:11;;;;;;;;;;;19.60;51.80;;;;;;4996465;28;19913;-72
2023/02/14 12:04:38;;;;;;;;;;;19.60;51.90;;;;;;5003138;28;19969;-74
2023/02/14 12:07:30;;;;;;;;;;;19.60;52.00;;;;;;5002255;28;19980;-71
2023/02/14 12:10:14;;;;;;;;;;;19.60;52.20;;;;;;4999764;28;19916;-71
2023/02/14 12:12:59;;;;;;;;;;;19.60;52.20;;;;;;4997268;28;19960;-70
2023/02/14 12:15:24;;;;;;;;;;;19.60;52.30;;;;;;4993946;28;19916;-71
2023/02/14 12:17:59;;;;;;;;;;;19.60;52.50;;;;;;5002984;28;19909;-73
2023/02/14 12:20:33;;;;;;;;;;;19.60;52.60;;;;;;5003380;28;19944;-70
2023/02/14 12:23:23;;;;;;;;;;;19.50;52.70;;;;;;5003174;28;19913;-71
2023/02/14 12:25:51;;;;;;;;;;;19.50;52.80;;;;;;5002668;28;19977;-72
2023/02/14 12:28:46;;;;;;;;;;;19.50;52.80;;;;;;4991865;28;19980;-70
2023/02/14 12:31:12;;;;;;;;;;;19.00;44.10;;;;;;4994015;28;19969;-72
2023/02/14 12:33:38;;;;;;;;;;;19.30;51.10;;;;;;5000173;28;20082;-72
2023/02/14 12:36:04;;;;;;;;;;;19.30;52.10;;;;;;5002365;28;20332;-70
2023/02/14 12:38:48;;;;;;;;;;;19.40;52.40;;;;;;5001900;28;19937;-70
2023/02/14 12:41:22;;;;;;;;;;;19.40;52.50;;;;;;5001556;28;19936;-71
2023/02/14 12:43:52;;;;;;;;;;;19.50;52.70;;;;;;4995882;28;19909;-74
2023/02/14 12:46:18;;;;;;;;;;;19.50;52.80;;;;;;4988079;28;19913;-71
2023/02/14 12:48:43;;;;;;;;;;;19.60;52.90;;;;;;5002113;28;20156;-70
2023/02/14 12:51:22;;;;;;;;;;;19.60;52.90;;;;;;5002632;28;20109;-71
2023/02/14 12:54:06;;;;;;;;;;;19.60;52.90;;;;;;5001715;28;19992;-71
2023/02/14 12:56:41;;;;;;;;;;;19.60;53.00;;;;;;5003318;28;19906;-75
2023/02/14 12:59:15;;;;;;;;;;;19.60;53.00;;;;;;4983909;28;19914;-73
2023/02/14 13:01:47;;;;;;;;;;;19.60;53.00;;;;;;5000340;28;20169;-70
2023/02/14 13:04:27;;;;;;;;;;;19.70;53.70;;;;;;5002964;28;19940;-73
2023/02/14 13:07:00;;;;;;;;;;;19.70;53.20;;;;;;5002976;28;19902;-73
2023/02/14 13:09:35;;;;;;;;;;;19.70;53.20;;;;;;5001407;28;19916;-72
2023/02/14 13:12:07;;;;;;;;;;;19.80;53.10;;;;;;4998998;28;19909;-72
2023/02/14 13:14:35;;;;;;;;;;;19.80;53.00;;;;;;4985870;28;19910;-71
2023/02/14 13:17:05;;;;;;;;;;;19.90;52.70;;;;;;4992091;28;19909;-70
2023/02/14 13:19:43;;;;;;;;;;;19.90;52.90;;;;;;4989298;28;19917;-72
2023/02/14 13:22:12;;;;;;;;;;;19.90;53.10;;;;;;4998336;28;19909;-73
2023/02/14 13:24:39;;;;;;;;;;;20.00;53.00;;;;;;5001117;28;20190;-71
2023/02/14 13:27:06;;;;;;;;;;;20.00;53.00;;;;;;5000029;28;20114;-71
2023/02/14 13:29:35;;;;;;;;;;;20.00;53.00;;;;;;5000133;28;20297;-71
2023/02/14 13:32:02;;;;;;;;;;;20.00;52.90;;;;;;5001053;28;20154;-71
2023/02/14 13:34:31;;;;;;;;;;;20.10;52.90;;;;;;5000414;28;19925;-72
2023/02/14 13:36:57;;;;;;;;;;;20.10;52.90;;;;;;5000871;28;20516;-72
2023/02/14 13:39:31;;;;;;;;;;;20.10;52.70;;;;;;5000952;28;19910;-71
2023/02/14 13:41:57;;;;;;;;;;;20.20;52.70;;;;;;5000770;28;19920;-71
2023/02/14 13:44:41;;;;;;;;;;;20.20;52.60;;;;;;4999684;28;19973;-72
2023/02/14 13:47:14;;;;;;;;;;;20.30;52.60;;;;;;4993617;28;19921;-71
2023/02/14 13:49:45;;;;;;;;;;;20.30;52.50;;;;;;4991785;28;19909;-72
2023/02/14 13:52:10;;;;;;;;;;;20.30;52.50;;;;;;4999918;28;19925;-71
2023/02/14 13:54:36;;;;;;;;;;;20.40;52.50;;;;;;4992062;28;20140;-71
2023/02/14 13:57:20;;;;;;;;;;;20.40;52.30;;;;;;4984591;28;19910;-71
2023/02/14 13:59:46;;;;;;;;;;;20.40;52.20;;;;;;4996884;28;19914;-74
2023/02/14 14:02:27;;;;;;;;;;;20.50;52.20;;;;;;5001829;28;19917;-71
2023/02/14 14:04:52;;;;;;;;;;;20.40;52.40;;;;;;5004318;28;19921;-73
2023/02/14 14:07:21;;;;;;;;;;;20.40;52.30;;;;;;5004066;28;19910;-71
2023/02/14 14:09:49;;;;;;;;;;;20.50;52.40;;;;;;5003975;28;19925;-71
2023/02/14 14:12:26;;;;;;;;;;;20.40;52.60;;;;;;5003834;28;19924;-71
2023/02/14 14:15:04;;;;;;;;;;;20.50;52.30;;;;;;5003797;28;19916;-71
2023/02/14 14:17:31;;;;;;;;;;;20.50;52.50;;;;;;5003038;28;19906;-75
2023/02/14 14:19:57;;;;;;;;;;;20.40;52.00;;;;;;5002938;28;19921;-74
2023/02/14 14:22:23;;;;;;;;;;;20.50;52.30;;;;;;5003573;28;19952;-72
2023/02/14 14:25:00;;;;;;;;;;;20.60;52.90;;;;;;5003626;28;19936;-71
2023/02/14 14:27:25;;;;;;;;;;;20.60;52.10;;;;;;5003679;28;20188;-71
2023/02/14 14:29:55;;;;;;;;;;;20.60;52.20;;;;;;5003511;28;19910;-71
2023/02/14 14:32:26;;;;;;;;;;;20.60;51.90;;;;;;5003655;28;19917;-72
2023/02/14 14:34:53;;;;;;;;;;;20.70;52.00;;;;;;5003629;28;19953;-71
2023/02/14 14:37:21;;;;;;;;;;;20.70;52.00;;;;;;5003087;28;19910;-73
2023/02/14 14:39:53;;;;;;;;;;;20.80;52.00;;;;;;5002861;28;20019;-73
2023/02/14 14:42:19;;;;;;;;;;;20.80;52.20;;;;;;5003385;28;20136;-72
2023/02/14 14:44:50;;;;;;;;;;;20.80;52.10;;;;;;5003373;28;19902;-72